Hat Yai, Thailand
Current Conditions -  °F | °C
As of 3:30 PM on Sunday 26 Oct 2014 (Local Time) from VTSS Reporting Station
Broken Clouds Broken Clouds  
Wind Chill: 88°   Ceiling: 30000
Heat Index: 100°   Visibility: 6mi
Dew Point: 77°   Wind: 8mph
Humidity: 70%   Direction: 20°NNE
Pressure: 29.77"   Gusts: NA
Location:  7°N, 100.47°E
Report Text: VTSS 260830Z 02007KT 9999 FEW018CB SCT120 BKN300 31/25 Q1008 A2979 NOSIG
Loading
Personal Weather Stations






























Interactive Weather Map
Tropical Storm Tracking
New forecast layout! Learn more

10-Day Weather Forecast

Advertisements
Track Severe Weather on mobile